createdAt,value
2019-06-07T00:00:40.368Z,4.50
2019-06-07T00:03:13.897Z,4.40
2019-06-07T00:05:39.233Z,5.20
2019-06-07T00:08:14.878Z,4.53
2019-06-07T00:10:38.140Z,4.80
2019-06-07T00:13:06.951Z,4.77
2019-06-07T00:15:35.808Z,4.10
2019-06-07T00:18:04.449Z,4.90
2019-06-07T00:20:33.068Z,4.80
2019-06-07T00:23:01.814Z,4.53
2019-06-07T00:25:30.405Z,4.63
2019-06-07T00:27:58.951Z,5.37
2019-06-07T00:30:42.222Z,4.83
2019-06-07T00:32:57.943Z,4.60
2019-06-07T00:35:26.695Z,4.83
2019-06-07T00:37:55.199Z,4.93
2019-06-07T00:40:31.137Z,4.60
2019-06-07T00:42:54.050Z,4.50
2019-06-07T00:45:24.648Z,5.00
2019-06-07T00:47:52.882Z,4.73
2019-06-07T00:50:24.081Z,4.90
2019-06-07T00:53:14.721Z,5.00
2019-06-07T00:55:27.085Z,4.40
2019-06-07T00:57:52.591Z,4.67
2019-06-07T01:00:24.670Z,4.70
2019-06-07T01:02:51.547Z,4.50
2019-06-07T01:05:23.510Z,4.53
2019-06-07T01:07:50.332Z,4.50
2019-06-07T01:10:46.021Z,4.77
2019-06-07T01:12:49.187Z,5.07
2019-06-07T01:15:26.877Z,5.00
2019-06-07T01:18:32.924Z,5.10
2019-06-07T01:20:24.299Z,5.33
2019-06-07T01:22:53.143Z,5.17
2019-06-07T01:25:22.732Z,5.03
2019-06-07T01:27:52.016Z,4.80
2019-06-07T01:30:24.123Z,4.57
2019-06-07T01:32:50.649Z,4.70
2019-06-07T01:35:20.623Z,5.00
2019-06-07T01:37:49.500Z,5.17
2019-06-07T01:40:20.783Z,4.90
2019-06-07T01:42:48.346Z,5.60
2019-06-07T01:45:18.358Z,5.37
2019-06-07T01:47:47.049Z,4.93
2019-06-07T01:50:17.126Z,5.70
2019-06-07T01:52:46.247Z,5.17
2019-06-07T01:55:15.784Z,4.80
2019-06-07T01:57:48.273Z,4.93
2019-06-07T02:00:14.653Z,4.73
2019-06-07T02:02:43.180Z,5.40
2019-06-07T02:05:11.741Z,5.30
2019-06-07T02:07:40.284Z,5.10
2019-06-07T02:10:08.929Z,5.10
2019-06-07T02:12:43.389Z,5.33
2019-06-07T02:15:08.560Z,5.63
2019-06-07T02:17:37.637Z,5.50
2019-06-07T02:20:06.849Z,6.43
2019-06-07T02:22:35.471Z,5.77
2019-06-07T02:25:35.283Z,5.60
2019-06-07T02:27:35.427Z,5.50
2019-06-07T02:30:35.477Z,5.23
2019-06-07T02:32:37.054Z,5.80
2019-06-07T02:35:06.078Z,5.30
2019-06-07T02:37:36.835Z,6.23
2019-06-07T02:40:08.290Z,6.30
2019-06-07T02:42:42.198Z,5.93
2019-06-07T02:45:10.654Z,6.10
2019-06-07T02:47:39.029Z,6.57
2019-06-07T02:50:14.393Z,5.63
2019-06-07T02:52:43.007Z,6.50
2019-06-07T02:55:11.750Z,6.33
2019-06-07T02:57:42.254Z,6.33
2019-06-07T03:00:41.419Z,6.07
2019-06-07T03:02:45.697Z,6.80
2019-06-07T03:05:14.306Z,7.53
2019-06-07T03:07:45.253Z,6.57
2019-06-07T03:10:13.302Z,7.13
2019-06-07T03:12:42.107Z,6.97
2019-06-07T03:15:10.689Z,6.90
2019-06-07T03:17:57.850Z,6.83
2019-06-07T03:20:31.625Z,6.57
2019-06-07T03:22:58.525Z,6.73
2019-06-07T03:25:28.231Z,6.10
2019-06-07T03:27:56.918Z,6.50
2019-06-07T03:30:58.144Z,6.77
2019-06-07T03:32:55.623Z,6.33
2019-06-07T03:35:24.238Z,6.90
2019-06-07T03:37:52.894Z,6.80
2019-06-07T03:40:21.398Z,6.37
2019-06-07T03:42:49.931Z,6.77
2019-06-07T03:45:18.510Z,6.70
2019-06-07T03:47:47.014Z,7.43
2019-06-07T03:50:15.563Z,6.53
2019-06-07T03:52:44.080Z,6.07
2019-06-07T03:55:12.694Z,5.93
2019-06-07T03:58:30.127Z,6.53
2019-06-07T04:00:11.408Z,7.10
2019-06-07T04:02:42.009Z,5.80
2019-06-07T04:05:10.192Z,7.60
2019-06-07T04:07:43.734Z,5.90
2019-06-07T04:10:09.117Z,6.70
2019-06-07T04:12:41.281Z,6.37
2019-06-07T04:15:07.981Z,6.70
2019-06-07T04:17:39.557Z,6.30
2019-06-07T04:20:06.834Z,6.83
2019-06-07T04:22:38.826Z,6.53
2019-06-07T04:25:10.491Z,6.90
2019-06-07T04:27:41.066Z,6.70
2019-06-07T04:30:10.132Z,6.37
2019-06-07T04:32:44.715Z,7.10
2019-06-07T04:35:09.139Z,7.10
2019-06-07T04:37:41.111Z,6.97
2019-06-07T04:40:08.522Z,6.77
2019-06-07T04:42:41.841Z,6.27
2019-06-07T04:45:29.222Z,6.50
2019-06-07T04:47:39.621Z,6.10
2019-06-07T04:50:08.688Z,6.40
2019-06-07T04:52:42.795Z,6.77
2019-06-07T04:55:07.657Z,6.90
2019-06-07T04:57:37.605Z,7.47
2019-06-07T05:00:46.778Z,7.00
2019-06-07T05:02:40.292Z,6.40
2019-06-07T05:05:07.334Z,7.80
2019-06-07T05:07:37.901Z,7.70
2019-06-07T05:10:06.076Z,7.23
2019-06-07T05:12:36.065Z,6.77
2019-06-07T05:15:06.040Z,7.03
2019-06-07T05:17:35.210Z,6.70
2019-06-07T05:20:06.133Z,7.10
2019-06-07T05:22:38.920Z,6.83
2019-06-07T05:25:05.720Z,6.83
2019-06-07T05:27:36.461Z,6.23
2019-06-07T05:30:13.526Z,7.40
2019-06-07T05:32:37.526Z,7.50
2019-06-07T05:35:07.879Z,8.30
2019-06-07T05:37:38.231Z,7.00
2019-06-07T05:40:07.375Z,7.87
2019-06-07T05:42:39.161Z,7.47
2019-06-07T05:45:06.962Z,6.90
2019-06-07T05:47:40.090Z,7.17
2019-06-07T05:50:37.854Z,6.73
2019-06-07T05:52:39.885Z,7.30
2019-06-07T05:55:07.091Z,7.27
2019-06-07T05:57:37.644Z,6.60
2019-06-07T06:00:07.610Z,7.37
2019-06-07T06:02:56.738Z,7.27
2019-06-07T06:05:06.882Z,7.00
2019-06-07T06:07:38.712Z,6.77
2019-06-07T06:10:08.518Z,7.13
2019-06-07T06:12:42.164Z,6.90
2019-06-07T06:15:08.417Z,7.27
2019-06-07T06:17:40.644Z,7.70
2019-06-07T06:20:07.773Z,7.30
2019-06-07T06:22:37.355Z,7.50
2019-06-07T06:30:10.673Z,6.70
2019-06-07T06:32:45.544Z,7.83
2019-06-07T06:35:09.509Z,6.80
2019-06-07T06:37:41.380Z,6.57
2019-06-07T06:40:08.575Z,6.37
2019-06-07T06:42:37.241Z,6.20
2019-06-07T06:45:09.183Z,6.87
2019-06-07T06:47:38.256Z,7.10
2019-06-07T06:50:08.663Z,6.37
2019-06-07T06:52:39.954Z,6.10
2019-06-07T06:55:10.637Z,6.07
2019-06-07T06:57:40.604Z,6.63
2019-06-07T07:00:11.430Z,6.00
2019-06-07T07:03:27.019Z,5.87
2019-06-07T07:05:11.996Z,5.57
2019-06-07T07:07:40.522Z,5.90
2019-06-07T07:10:09.162Z,5.77
2019-06-07T07:12:37.649Z,5.90
2019-06-07T07:15:10.671Z,5.90
2019-06-07T07:17:50.821Z,5.87
2019-06-07T07:20:09.458Z,5.70
2019-06-07T07:22:38.079Z,5.50
2019-06-07T07:25:07.383Z,6.27
2019-06-07T07:27:36.054Z,5.27
2019-06-07T07:30:35.520Z,5.53
2019-06-07T07:32:37.970Z,5.77
2019-06-07T07:35:06.542Z,5.60
2019-06-07T07:37:35.158Z,5.27
2019-06-07T07:40:54.201Z,5.20
2019-06-07T07:42:37.518Z,5.40
2019-06-07T07:45:06.250Z,5.10
2019-06-07T07:47:34.738Z,4.80
2019-06-07T07:50:04.291Z,5.57
2019-06-07T07:52:32.920Z,5.90
2019-06-07T07:55:01.468Z,5.60
2019-06-07T07:57:30.156Z,5.67
2019-06-07T08:00:25.684Z,5.67
2019-06-07T08:02:29.514Z,5.77
2019-06-07T08:05:23.344Z,5.90
2019-06-07T08:07:30.704Z,5.70
2019-06-07T08:10:03.498Z,5.60
2019-06-07T08:12:54.735Z,6.57
2019-06-07T08:15:03.686Z,5.50
2019-06-07T08:17:31.219Z,5.80
2019-06-07T08:20:02.864Z,5.90
2019-06-07T08:22:29.914Z,5.53
2019-06-07T08:25:02.371Z,5.37
2019-06-07T08:27:28.642Z,5.53
2019-06-07T08:30:15.938Z,5.20
2019-06-07T08:32:27.798Z,5.20
2019-06-07T08:35:02.377Z,5.77
2019-06-07T08:38:13.421Z,5.77
2019-06-07T08:39:59.720Z,6.03
2019-06-07T08:42:37.094Z,5.73
2019-06-07T08:45:03.597Z,5.60
2019-06-07T08:47:28.148Z,5.80
2019-06-07T08:50:01.642Z,5.90
2019-06-07T08:52:26.928Z,6.00
2019-06-07T08:54:57.827Z,5.50
2019-06-07T08:57:26.051Z,5.63
2019-06-07T08:59:56.530Z,5.37
2019-06-07T09:02:25.966Z,4.60
2019-06-07T09:04:59.229Z,4.97
2019-06-07T09:07:25.221Z,4.97
2019-06-07T09:09:58.478Z,4.70
2019-06-07T09:12:23.980Z,4.10
2019-06-07T09:15:06.684Z,4.00
2019-06-07T09:17:23.050Z,4.20
2019-06-07T09:19:51.548Z,4.63
2019-06-07T09:22:20.173Z,4.73
2019-06-07T09:24:48.818Z,4.57
2019-06-07T09:27:17.327Z,4.60
2019-06-07T09:29:45.983Z,4.57
2019-06-07T09:32:18.130Z,4.27
2019-06-07T09:34:44.948Z,4.87
2019-06-07T09:38:03.115Z,4.90
2019-06-07T09:39:43.738Z,4.30
2019-06-07T09:42:12.828Z,4.70
2019-06-07T09:44:41.707Z,4.30
2019-06-07T09:47:30.373Z,4.03
2019-06-07T09:49:42.584Z,4.37
2019-06-07T09:52:11.314Z,4.30
2019-06-07T09:57:16.718Z,4.60
2019-06-07T09:59:40.526Z,4.40
2019-06-07T10:02:13.534Z,3.50
2019-06-07T10:04:39.570Z,3.93
2019-06-07T10:07:30.214Z,4.53
2019-06-07T10:10:11.727Z,4.40
2019-06-07T10:12:13.351Z,4.27
2019-06-07T10:14:45.058Z,3.67
2019-06-07T10:17:13.020Z,3.40
2019-06-07T10:19:41.668Z,3.67
2019-06-07T10:22:10.412Z,3.90
2019-06-07T10:24:39.109Z,6.27
2019-06-07T10:27:07.958Z,3.40
2019-06-07T10:29:36.519Z,3.30
2019-06-07T10:32:05.143Z,3.30
2019-06-07T10:34:33.831Z,3.30
2019-06-07T10:37:03.345Z,3.37
2019-06-07T10:39:47.559Z,3.67
2019-06-07T10:42:06.381Z,3.30
2019-06-07T10:44:35.979Z,2.97
2019-06-07T10:47:05.908Z,2.23
2019-06-07T10:49:34.830Z,2.70
2019-06-07T10:52:05.043Z,3.17
2019-06-07T10:54:33.565Z,3.30
2019-06-07T10:57:02.928Z,2.50
2019-06-07T10:59:31.589Z,3.30
2019-06-07T11:02:00.245Z,3.80
2019-06-07T11:04:28.797Z,4.20
2019-06-07T11:06:57.346Z,2.93
2019-06-07T11:09:25.869Z,3.03
2019-06-07T11:11:56.158Z,4.10
2019-06-07T11:14:24.718Z,3.87
2019-06-07T11:16:53.319Z,3.13
2019-06-07T11:19:21.899Z,4.43
2019-06-07T11:21:50.579Z,2.83
2019-06-07T11:24:24.409Z,3.43
2019-06-07T11:26:49.418Z,2.73
2019-06-07T11:29:19.174Z,2.90
2019-06-07T11:31:50.433Z,2.80
2019-06-07T11:34:18.954Z,3.10
2019-06-07T11:36:50.969Z,4.00
2019-06-07T11:39:18.798Z,4.83
2019-06-07T11:41:47.498Z,3.10
2019-06-07T11:44:18.674Z,3.10
2019-06-07T11:46:50.279Z,4.77
2019-06-07T11:49:21.645Z,3.03
2019-06-07T11:51:48.898Z,2.40
2019-06-07T11:54:20.311Z,2.90
2019-06-07T11:56:48.104Z,2.43
2019-06-07T11:59:17.441Z,3.20
2019-06-07T12:01:46.095Z,3.00
2019-06-07T12:04:31.110Z,2.50
2019-06-07T12:06:49.644Z,2.97
2019-06-07T12:09:18.789Z,3.23
2019-06-07T12:11:48.067Z,3.30
2019-06-07T12:14:16.886Z,2.80
2019-06-07T12:16:45.458Z,3.70
2019-06-07T12:19:15.483Z,3.00
2019-06-07T12:21:44.266Z,3.00
2019-06-07T12:24:14.083Z,3.47
2019-06-07T12:26:42.823Z,3.00
2019-06-07T12:29:12.544Z,3.77
2019-06-07T12:31:41.518Z,2.40
2019-06-07T12:34:11.195Z,2.70
2019-06-07T12:36:39.940Z,3.17
2019-06-07T12:39:08.577Z,2.23
2019-06-07T12:41:37.307Z,3.07
2019-06-07T12:44:06.307Z,2.47
2019-06-07T12:46:41.020Z,3.00
2019-06-07T12:49:11.184Z,2.60
2019-06-07T12:51:39.662Z,3.10
2019-06-07T12:54:08.257Z,2.93
2019-06-07T12:56:36.789Z,3.40
2019-06-07T12:59:06.930Z,3.20
2019-06-07T13:01:35.573Z,3.37
2019-06-07T13:04:04.095Z,3.27
2019-06-07T13:06:32.797Z,2.77
2019-06-07T13:09:01.494Z,2.80
2019-06-07T13:11:31.705Z,2.90
2019-06-07T13:14:01.290Z,2.40
2019-06-07T13:16:29.919Z,3.10
2019-06-07T13:18:58.406Z,3.13
2019-06-07T13:21:28.549Z,3.37
2019-06-07T13:23:57.330Z,3.23
2019-06-07T13:26:25.922Z,2.53
2019-06-07T13:28:54.441Z,2.90
2019-06-07T13:31:23.387Z,2.23
2019-06-07T13:33:52.091Z,2.27
2019-06-07T13:36:20.606Z,2.80
2019-06-07T13:38:49.152Z,3.00
2019-06-07T13:41:33.696Z,2.20
2019-06-07T13:43:51.366Z,2.00
2019-06-07T13:46:18.961Z,2.10
2019-06-07T13:48:47.595Z,2.17
2019-06-07T13:51:18.373Z,1.90
2019-06-07T13:53:46.242Z,1.90
2019-06-07T13:56:14.853Z,1.60
2019-06-07T13:58:43.613Z,2.10
2019-06-07T14:01:12.131Z,3.10
2019-06-07T14:03:40.679Z,2.97
2019-06-07T14:06:09.427Z,2.10
2019-06-07T14:08:38.056Z,2.50
2019-06-07T14:11:07.747Z,3.20
2019-06-07T14:13:36.554Z,2.10
2019-06-07T14:16:05.263Z,2.27
2019-06-07T14:18:33.870Z,1.80
2019-06-07T14:21:02.544Z,2.37
2019-06-07T14:23:46.136Z,1.90
2019-06-07T14:26:02.969Z,2.27
2019-06-07T14:28:34.002Z,2.10
2019-06-07T14:31:03.969Z,2.13
2019-06-07T14:33:33.706Z,1.50
2019-06-07T14:36:02.520Z,2.10
2019-06-07T14:38:33.981Z,1.90
2019-06-07T14:41:01.273Z,1.90
2019-06-07T14:43:29.858Z,2.20
2019-06-07T14:45:58.382Z,1.70
2019-06-07T14:48:28.017Z,1.60
2019-06-07T14:50:57.347Z,1.17
2019-06-07T14:53:26.578Z,1.43
2019-06-07T14:55:55.352Z,1.47
2019-06-07T14:58:24.943Z,1.83
2019-06-07T15:00:53.709Z,1.83
2019-06-07T15:03:22.787Z,1.50
2019-06-07T15:05:51.570Z,1.50
2019-06-07T15:08:20.208Z,1.70
2019-06-07T15:10:59.103Z,1.73
2019-06-07T15:13:29.301Z,1.40
2019-06-07T15:15:57.838Z,1.10
2019-06-07T15:18:27.486Z,1.30
2019-06-07T15:20:56.115Z,1.70
2019-06-07T15:23:24.687Z,1.80
2019-06-07T15:25:53.329Z,2.13
2019-06-07T15:28:21.838Z,1.80
2019-06-07T15:30:50.646Z,1.70
2019-06-07T15:33:19.243Z,2.37
2019-06-07T15:35:47.999Z,1.60
2019-06-07T15:38:16.618Z,1.40
2019-06-07T15:40:45.195Z,1.60
2019-06-07T15:43:13.829Z,2.13
2019-06-07T15:45:42.445Z,1.33
2019-06-07T15:48:10.923Z,3.03
2019-06-07T15:50:40.436Z,1.67
2019-06-07T15:53:09.316Z,1.83
2019-06-07T15:55:43.869Z,2.97
2019-06-07T15:58:08.029Z,1.90
2019-06-07T16:00:37.439Z,1.90
2019-06-07T16:03:06.418Z,1.63
2019-06-07T16:05:36.314Z,1.70
2019-06-07T16:08:05.199Z,3.07
2019-06-07T16:10:34.674Z,1.63
2019-06-07T16:13:03.261Z,2.10
2019-06-07T16:15:33.024Z,1.70
2019-06-07T16:18:03.988Z,2.47
2019-06-07T16:20:33.266Z,1.97
2019-06-07T16:23:01.842Z,1.40
2019-06-07T16:25:30.355Z,1.37
2019-06-07T16:27:59.442Z,1.90
2019-06-07T16:30:28.551Z,1.60
2019-06-07T16:33:01.593Z,1.50
2019-06-07T16:35:30.205Z,1.40
2019-06-07T16:38:05.092Z,1.60
2019-06-07T16:40:33.684Z,1.70
2019-06-07T16:43:17.062Z,1.83
2019-06-07T16:45:32.787Z,1.23
2019-06-07T16:48:01.301Z,1.87
2019-06-07T16:50:29.973Z,1.70
2019-06-07T16:52:58.659Z,2.63
2019-06-07T16:55:27.145Z,1.70
2019-06-07T16:57:55.872Z,1.43
2019-06-07T17:00:24.513Z,2.40
2019-06-07T17:02:52.995Z,2.90
2019-06-07T17:05:21.960Z,1.60
2019-06-07T17:07:50.513Z,1.80
2019-06-07T17:10:19.069Z,2.03
2019-06-07T17:12:49.001Z,2.13
2019-06-07T17:15:17.931Z,2.00
2019-06-07T17:17:47.082Z,1.93
2019-06-07T17:20:15.847Z,2.03
2019-06-07T17:22:45.678Z,2.27
2019-06-07T17:25:14.415Z,2.73
2019-06-07T17:27:43.991Z,4.20
2019-06-07T17:30:13.590Z,2.40
2019-06-07T17:32:51.789Z,1.53
2019-06-07T17:35:12.296Z,2.30
2019-06-07T17:37:43.170Z,4.40
2019-06-07T17:40:12.990Z,2.33
2019-06-07T17:42:42.646Z,2.33
2019-06-07T17:45:12.487Z,2.50
2019-06-07T17:47:41.608Z,2.17
2019-06-07T17:50:11.614Z,3.63
2019-06-07T17:52:41.635Z,2.30
2019-06-07T17:55:10.479Z,1.93
2019-06-07T17:57:39.269Z,2.10
2019-06-07T18:00:27.754Z,2.00
2019-06-07T18:02:38.818Z,2.90
2019-06-07T18:05:08.026Z,1.77
2019-06-07T18:07:37.802Z,2.17
2019-06-07T18:10:06.959Z,1.57
2019-06-07T18:12:35.521Z,2.30
2019-06-07T18:15:06.355Z,1.47
2019-06-07T18:17:35.097Z,2.70
2019-06-07T18:20:06.669Z,3.70
2019-06-07T18:22:35.313Z,2.37
2019-06-07T18:25:07.093Z,2.10
2019-06-07T18:27:35.751Z,3.67
2019-06-07T18:30:11.806Z,2.50
2019-06-07T18:32:39.098Z,2.77
2019-06-07T18:35:07.818Z,3.50
2019-06-07T18:37:36.584Z,2.10
2019-06-07T18:40:08.108Z,1.87
2019-06-07T18:42:38.502Z,2.07
2019-06-07T18:45:08.877Z,1.87
2019-06-07T18:47:37.421Z,2.83
2019-06-07T18:50:06.383Z,1.90
2019-06-07T18:52:36.655Z,2.20
2019-06-07T18:55:09.926Z,2.37
2019-06-07T18:57:38.511Z,2.90
2019-06-07T19:00:12.025Z,2.33
2019-06-07T19:02:40.601Z,1.90
2019-06-07T19:05:09.414Z,3.80
2019-06-07T19:07:39.049Z,2.80
2019-06-07T19:10:08.515Z,1.63
2019-06-07T19:12:37.405Z,1.47
2019-06-07T19:15:06.934Z,1.80
2019-06-07T19:17:35.443Z,2.27
2019-06-07T19:20:06.016Z,2.00
2019-06-07T19:22:34.545Z,1.70
2019-06-07T19:25:03.240Z,2.00
2019-06-07T19:27:32.973Z,2.70
2019-06-07T19:30:01.989Z,2.33
2019-06-07T19:32:32.254Z,2.10
2019-06-07T19:35:01.640Z,2.10
2019-06-07T19:37:30.314Z,1.40
2019-06-07T19:40:00.112Z,1.83
2019-06-07T19:42:29.135Z,2.20
2019-06-07T19:45:16.859Z,2.30
2019-06-07T19:47:28.580Z,1.97
2019-06-07T19:49:57.214Z,2.10
2019-06-07T19:52:26.079Z,1.93
2019-06-07T19:54:55.756Z,1.90
2019-06-07T19:57:24.315Z,2.23
2019-06-07T19:59:53.424Z,1.63
2019-06-07T20:02:22.079Z,2.57
2019-06-07T20:04:50.647Z,2.00
2019-06-07T20:07:19.318Z,1.73
2019-06-07T20:09:48.123Z,2.77
2019-06-07T20:12:16.802Z,2.40
2019-06-07T20:14:45.473Z,1.80
2019-06-07T20:17:14.111Z,2.57
2019-06-07T20:19:43.586Z,2.37
2019-06-07T20:22:12.382Z,2.03
2019-06-07T20:24:41.006Z,1.87
2019-06-07T20:27:09.507Z,2.40
2019-06-07T20:29:43.959Z,2.20
2019-06-07T20:32:12.587Z,2.43
2019-06-07T20:34:44.512Z,2.33
2019-06-07T20:37:11.951Z,1.70
2019-06-07T20:39:40.861Z,1.83
2019-06-07T20:42:13.040Z,2.40
2019-06-07T20:44:44.666Z,1.77
2019-06-07T20:47:15.278Z,1.90
2019-06-07T20:49:44.365Z,1.70
2019-06-07T20:52:13.571Z,1.50
2019-06-07T20:54:46.489Z,1.33
2019-06-07T20:57:15.174Z,2.13
2019-06-07T20:59:43.832Z,2.43
2019-06-07T21:02:12.429Z,1.30
2019-06-07T21:04:41.232Z,1.70
2019-06-07T21:07:10.294Z,1.43
2019-06-07T21:09:40.383Z,1.80
2019-06-07T21:12:09.947Z,1.60
2019-06-07T21:14:38.844Z,2.27
2019-06-07T21:17:08.224Z,1.30
2019-06-07T21:19:37.249Z,1.57
2019-06-07T21:22:06.766Z,1.23
2019-06-07T21:24:35.580Z,1.83
2019-06-07T21:27:05.408Z,1.37
2019-06-07T21:29:35.552Z,1.37
2019-06-07T21:32:05.368Z,1.53
2019-06-07T21:34:34.678Z,1.47
2019-06-07T21:37:03.840Z,1.50
2019-06-07T21:39:35.031Z,1.30
2019-06-07T21:42:04.193Z,1.47
2019-06-07T21:44:32.961Z,1.80
2019-06-07T21:47:02.393Z,1.80
2019-06-07T21:49:30.965Z,1.77
2019-06-07T21:51:59.466Z,1.43
2019-06-07T21:54:28.290Z,1.60
2019-06-07T21:56:56.827Z,1.10
2019-06-07T21:59:25.318Z,1.40
2019-06-07T22:01:53.942Z,1.23
2019-06-07T22:04:22.509Z,1.60
2019-06-07T22:06:52.785Z,1.40
2019-06-07T22:09:21.459Z,1.40
2019-06-07T22:11:57.462Z,1.93
2019-06-07T22:14:26.200Z,1.60
2019-06-07T22:16:54.883Z,1.80
2019-06-07T22:19:23.406Z,1.30
2019-06-07T22:22:02.260Z,1.90
2019-06-07T22:24:22.123Z,1.70
2019-06-07T22:26:50.662Z,1.50
2019-06-07T22:29:19.520Z,1.40
2019-06-07T22:31:48.043Z,2.63
2019-06-07T22:34:16.567Z,1.97
2019-06-07T22:36:45.077Z,1.87
2019-06-07T22:39:13.961Z,1.63
2019-06-07T22:41:42.578Z,2.03
2019-06-07T22:44:11.069Z,1.87
2019-06-07T22:46:39.599Z,2.10
2019-06-07T22:49:09.144Z,1.77
2019-06-07T22:51:37.806Z,1.77
2019-06-07T22:54:07.501Z,1.50
2019-06-07T22:56:53.998Z,1.40
2019-06-07T22:59:22.482Z,1.90
2019-06-07T23:01:51.111Z,1.33
2019-06-07T23:04:19.646Z,2.07
2019-06-07T23:06:48.185Z,2.13
2019-06-07T23:09:17.130Z,1.90
2019-06-07T23:11:45.743Z,2.00
2019-06-07T23:14:15.308Z,2.17
2019-06-07T23:16:55.023Z,2.30
2019-06-07T23:19:13.993Z,2.13
2019-06-07T23:21:42.510Z,2.00
2019-06-07T23:24:11.900Z,1.93
2019-06-07T23:26:40.415Z,1.90
2019-06-07T23:29:10.212Z,2.00
2019-06-07T23:31:38.965Z,2.27
2019-06-07T23:34:07.418Z,1.80
2019-06-07T23:36:36.025Z,2.07
2019-06-07T23:39:06.912Z,2.00
2019-06-07T23:41:35.475Z,2.00
2019-06-07T23:44:04.004Z,2.43
2019-06-07T23:46:32.467Z,2.37
2019-06-07T23:49:01.030Z,2.23
2019-06-07T23:51:29.636Z,3.10
2019-06-07T23:53:59.266Z,3.37
2019-06-07T23:56:27.830Z,2.50
2019-06-07T23:58:56.390Z,2.87
